Terminal Aerodrome Forecast
Issued by NWS Sterling, VA

Home | Current Version | Previous Version | Text Only | Print | Product List | Glossary On
Versions: 1 2 3 4 5 6 7 8 9 10 11 12 13 14 15 16 17 18 19 20 21 22 23 24
000
FTUS41 KLWX 031143 RRB
TAFBWI
TAF
KBWI 031143Z 0312/0418 34004KT P6SM OVC250
     FM031300 VRB03KT P6SM BKN050
     FM031900 14006KT P6SM OVC030
      TEMPO 0319/0322 5SM -SNPL OVC020
     FM032200 13008KT 3SM -FZRA BR OVC015
     FM040000 15009KT 2SM BR OVC007
      TEMPO 0400/0403 1SM -FZRA BR
     FM040300 22007KT 1 1/2SM BR OVC004
     FM041000 25005KT 2SM -RA OVC004=

USA.gov is the U.S. government's official web portal to all federal, state and local government web resources and services.